createdAt,value
2018-01-10T14:42:39.498Z,4.20
2018-01-10T15:19:53.696Z,3.00
2018-01-10T15:20:53.477Z,4.80
2018-01-10T15:21:53.575Z,4.90
2018-01-10T15:22:53.420Z,4.80
2018-01-10T15:23:53.488Z,6.50
2018-01-10T15:24:53.496Z,5.00
2018-01-10T15:25:53.420Z,5.00
2018-01-10T15:26:53.405Z,5.10
2018-01-10T15:27:53.260Z,7.00
2018-01-10T15:28:53.418Z,5.70
2018-01-10T15:29:53.205Z,6.60
2018-01-10T15:30:53.254Z,5.20
2018-01-10T15:31:53.156Z,4.80
2018-01-10T15:32:53.129Z,6.30
2018-01-10T15:33:53.099Z,6.00
2018-01-10T15:34:53.251Z,5.40
2018-01-10T15:35:53.051Z,5.30
2018-01-10T15:36:53.169Z,5.60
2018-01-10T15:37:52.999Z,5.70
2018-01-10T15:38:53.081Z,5.70
2018-01-10T15:39:52.948Z,7.00
2018-01-10T15:40:53.094Z,9.00
2018-01-10T15:41:52.896Z,5.40
2018-01-10T15:42:53.006Z,5.30
2018-01-10T15:43:52.926Z,6.70
2018-01-10T15:44:52.820Z,6.70
2018-01-10T15:45:52.923Z,6.50
2018-01-10T15:46:52.767Z,7.90
2018-01-10T15:47:52.936Z,9.40
2018-01-10T15:48:52.720Z,7.60
2018-01-10T15:49:52.847Z,10.50
2018-01-10T15:50:52.670Z,9.40
2018-01-10T15:51:52.759Z,8.30
2018-01-10T15:52:52.623Z,9.80
2018-01-10T15:53:52.772Z,6.60
2018-01-10T15:54:52.569Z,9.30
2018-01-10T15:55:52.685Z,10.50
2018-01-10T15:56:52.524Z,8.10
2018-01-10T15:57:52.700Z,8.60
2018-01-10T15:58:52.472Z,10.60
2018-01-10T15:59:52.605Z,7.70
2018-01-10T16:00:52.422Z,8.90
2018-01-10T16:01:52.533Z,9.40
2018-01-10T16:02:52.373Z,9.80
2018-01-10T16:03:52.536Z,19.00
2018-01-10T16:04:52.326Z,19.20
2018-01-10T16:05:52.447Z,20.30
2018-01-10T16:06:52.275Z,20.10
2018-01-10T16:07:52.461Z,20.20
2018-01-10T16:08:52.225Z,17.70
2018-01-10T16:09:52.372Z,14.20
2018-01-10T16:10:52.177Z,9.10
2018-01-10T16:11:52.153Z,10.70
2018-01-10T16:12:52.131Z,11.90
2018-01-10T16:13:52.190Z,11.40
2018-01-10T16:14:52.081Z,12.70
2018-01-10T16:15:52.210Z,8.70
2018-01-10T16:16:52.033Z,11.20
2018-01-10T16:17:52.008Z,10.30
2018-01-10T16:18:51.980Z,11.30
2018-01-10T16:19:52.032Z,10.40
2018-01-10T16:20:51.935Z,10.50
2018-01-10T16:21:51.945Z,13.20
2018-01-10T16:22:51.886Z,10.50
2018-01-10T16:23:51.959Z,8.40
2018-01-10T16:24:51.837Z,8.10
2018-01-10T16:25:51.867Z,9.80
2018-01-10T16:26:51.791Z,10.80
2018-01-10T16:27:51.761Z,9.70
2018-01-10T16:28:51.738Z,10.10
2018-01-10T16:29:51.797Z,7.40
2018-01-10T16:30:51.689Z,10.80
2018-01-10T16:31:51.707Z,11.50
2018-01-10T16:32:51.642Z,11.40
2018-01-10T16:33:51.719Z,12.20
2018-01-10T16:34:51.591Z,11.20
2018-01-10T16:35:51.637Z,8.60
2018-01-10T16:36:51.544Z,8.00
2018-01-10T16:37:51.650Z,11.30
2018-01-10T16:38:51.493Z,11.00
2018-01-10T16:39:51.559Z,10.10
2018-01-10T16:40:51.449Z,10.80
2018-01-10T16:41:51.470Z,11.50
2018-01-10T16:42:51.397Z,12.70
2018-01-10T16:43:51.488Z,10.20
2018-01-10T16:44:51.348Z,9.50
2018-01-10T16:45:52.111Z,9.50
2018-01-10T16:46:51.317Z,9.30
2018-01-10T16:47:51.409Z,11.50
2018-01-10T16:48:51.251Z,9.60
2018-01-10T16:49:51.322Z,8.50
2018-01-10T16:50:51.197Z,9.90
2018-01-10T16:51:51.173Z,8.70
2018-01-10T16:52:51.240Z,8.80
2018-01-10T16:53:51.126Z,8.90
2018-01-10T16:54:51.154Z,8.90
2018-01-10T16:55:51.080Z,8.70
2018-01-10T16:56:51.129Z,8.50
2018-01-10T16:57:51.027Z,8.00
2018-01-10T16:58:51.096Z,7.00
2018-01-10T16:59:50.979Z,9.10
2018-01-10T17:00:51.091Z,7.90
2018-01-10T17:01:50.924Z,9.20
2018-01-10T17:02:50.902Z,8.40
2018-01-10T17:03:50.879Z,9.40
2018-01-10T17:04:50.918Z,9.10
2018-01-10T17:05:51.324Z,9.70
2018-01-10T17:06:50.927Z,9.40
2018-01-10T17:07:50.935Z,7.30
2018-01-10T17:08:50.757Z,8.00
2018-01-10T17:09:50.844Z,8.90
2018-01-10T17:10:50.705Z,7.60
2018-01-10T17:11:50.758Z,6.70
2018-01-10T17:12:50.661Z,7.90
2018-01-10T17:13:50.668Z,9.60
2018-01-10T17:14:50.608Z,10.00
2018-01-10T17:15:50.681Z,7.50
2018-01-10T17:16:50.558Z,6.40
2018-01-10T17:17:50.696Z,7.60
2018-01-10T17:18:50.513Z,9.70
2018-01-10T17:19:50.484Z,7.70
2018-01-10T17:20:50.461Z,10.50
2018-01-10T17:21:50.519Z,12.00
2018-01-10T17:22:50.408Z,19.00
2018-01-10T17:23:50.430Z,21.70
2018-01-10T17:24:50.360Z,14.60
2018-01-10T17:25:50.443Z,18.50
2018-01-10T17:26:50.311Z,18.70
2018-01-10T17:27:50.355Z,19.60
2018-01-10T17:28:50.269Z,16.60
2018-01-10T17:29:50.265Z,16.10
2018-01-10T17:30:50.217Z,12.60
2018-01-10T17:31:50.279Z,13.40
2018-01-10T17:32:50.164Z,12.80
2018-01-10T17:33:50.191Z,12.10
2018-01-10T17:34:50.132Z,15.20
2018-01-10T17:35:50.102Z,24.30
2018-01-10T17:36:50.067Z,12.30
2018-01-10T17:37:50.115Z,13.10
2018-01-10T17:38:50.017Z,10.20
2018-01-10T17:39:50.028Z,11.70
2018-01-10T17:40:49.971Z,11.30
2018-01-10T17:41:50.043Z,11.40
2018-01-10T17:42:49.916Z,11.60
2018-01-10T17:43:49.951Z,11.20
2018-01-10T17:44:49.868Z,9.80
2018-01-10T17:45:49.865Z,11.30
2018-01-10T17:46:49.815Z,11.60
2018-01-10T17:47:49.870Z,10.70
2018-01-10T17:48:49.769Z,12.00
2018-01-10T17:49:49.788Z,18.60
2018-01-10T17:50:49.719Z,14.10
2018-01-10T17:51:49.804Z,14.10
2018-01-10T17:52:49.673Z,11.10
2018-01-10T17:53:49.719Z,10.60
2018-01-10T17:54:49.620Z,10.30
2018-01-10T17:55:49.627Z,10.20
2018-01-10T17:56:49.572Z,8.50
2018-01-10T17:57:49.640Z,25.00
2018-01-10T17:58:49.521Z,25.00
2018-01-10T17:59:50.578Z,20.90
2018-01-10T18:00:49.473Z,23.00
2018-01-10T18:01:49.464Z,18.50
2018-01-10T18:02:49.420Z,20.90
2018-01-10T18:03:49.480Z,17.90
2018-01-10T18:04:49.372Z,17.40
2018-01-10T18:05:49.390Z,17.60
2018-01-10T18:06:49.323Z,17.00
2018-01-10T18:07:49.407Z,19.60
2018-01-10T18:08:49.275Z,17.20
2018-01-10T18:09:49.318Z,19.50
2018-01-10T18:10:49.222Z,14.40
2018-01-10T18:11:49.227Z,13.00
2018-01-10T18:12:49.176Z,16.80
2018-01-10T18:13:49.242Z,14.90
2018-01-10T18:14:49.124Z,13.30
2018-01-10T18:15:49.159Z,13.30
2018-01-10T18:16:49.090Z,16.00
2018-01-10T18:17:49.165Z,30.60
2018-01-10T18:18:49.026Z,21.20
2018-01-10T18:19:49.076Z,27.80
2018-01-10T18:20:48.979Z,21.30
2018-01-10T18:21:48.988Z,19.50
2018-01-10T18:22:48.926Z,17.10
2018-01-10T18:23:49.003Z,18.40
2018-01-10T18:24:48.876Z,17.50
2018-01-10T18:25:48.914Z,13.80
2018-01-10T18:26:48.826Z,14.20
2018-01-10T18:27:48.824Z,13.20
2018-01-10T18:28:48.775Z,10.30
2018-01-10T18:29:48.842Z,9.60
2018-01-10T18:30:48.731Z,8.80
2018-01-10T18:31:48.752Z,11.00
2018-01-10T18:32:48.677Z,9.70
2018-01-10T18:33:48.763Z,10.40
2018-01-10T18:34:48.633Z,10.10
2018-01-10T18:35:48.675Z,9.00
2018-01-10T18:36:48.579Z,9.30
2018-01-10T18:37:48.609Z,7.70
2018-01-10T18:38:48.527Z,7.70
2018-01-10T18:39:48.600Z,9.30
2018-01-10T18:40:48.478Z,7.00
2018-01-10T18:41:48.513Z,8.00
2018-01-10T18:42:48.624Z,8.40
2018-01-10T18:43:48.404Z,8.20
2018-01-10T18:44:48.432Z,7.30
2018-01-10T18:45:48.352Z,8.00
2018-01-10T18:46:48.547Z,7.50
2018-01-10T18:47:48.303Z,8.40
2018-01-10T18:48:48.280Z,11.80
2018-01-10T18:49:48.362Z,11.40
2018-01-10T18:50:48.229Z,8.20
2018-01-10T18:51:48.274Z,12.30
2018-01-10T18:52:48.184Z,14.60
2018-01-10T18:53:48.189Z,18.40
2018-01-10T18:54:48.127Z,16.60
2018-01-10T18:55:48.199Z,20.70
2018-01-10T18:56:48.080Z,19.90
2018-01-10T18:57:48.113Z,17.80
2018-01-10T18:58:48.030Z,16.20
2018-01-10T18:59:48.128Z,14.40
2018-01-10T19:00:47.978Z,21.80
2018-01-10T19:01:48.038Z,21.20
2018-01-10T19:02:47.928Z,13.10
2018-01-10T19:03:47.950Z,14.90
2018-01-10T19:04:47.883Z,14.90
2018-01-10T19:05:47.962Z,25.50
2018-01-10T19:06:47.830Z,17.10
2018-01-10T19:07:47.874Z,19.60
2018-01-10T19:08:47.792Z,20.50
2018-01-10T19:09:47.888Z,20.00
2018-01-10T19:10:47.727Z,20.90
2018-01-10T19:11:47.799Z,14.20
2018-01-10T19:12:47.678Z,14.20
2018-01-10T19:13:47.709Z,13.60
2018-01-10T19:14:47.627Z,11.90
2018-01-10T19:15:47.723Z,11.50
2018-01-10T19:16:47.576Z,15.10
2018-01-10T19:17:47.636Z,13.60
2018-01-10T19:18:47.527Z,12.40
2018-01-10T19:19:47.650Z,11.20
2018-01-10T19:20:47.520Z,13.60
2018-01-10T19:21:47.452Z,11.90
2018-01-10T19:22:47.532Z,13.30
2018-01-10T19:23:47.403Z,14.70
2018-01-10T19:24:47.444Z,14.00
2018-01-10T19:25:47.350Z,11.40
2018-01-10T19:26:47.354Z,9.70
2018-01-10T19:27:47.328Z,12.60
2018-01-10T19:28:47.365Z,10.80
2018-01-10T19:29:47.272Z,9.60
2018-01-10T19:30:47.311Z,9.40
2018-01-10T19:31:47.201Z,11.20
2018-01-10T19:32:47.288Z,10.20
2018-01-10T19:33:47.149Z,9.80
2018-01-10T19:34:47.200Z,9.20
2018-01-10T19:35:47.098Z,10.50
2018-01-10T19:36:47.352Z,8.30
2018-01-10T19:37:47.050Z,10.20
2018-01-10T19:38:47.120Z,11.50
2018-01-10T19:39:46.989Z,11.80
2018-01-10T19:40:47.032Z,18.90
2018-01-10T19:41:46.947Z,14.30
2018-01-10T19:42:46.943Z,13.40
2018-01-10T19:43:46.895Z,12.40
2018-01-10T19:44:46.958Z,14.10
2018-01-10T19:45:46.846Z,11.70
2018-01-10T19:46:46.861Z,12.40
2018-01-10T19:47:46.810Z,10.80
2018-01-10T19:48:46.877Z,11.30
2018-01-10T19:49:46.749Z,11.30
2018-01-10T19:50:46.787Z,10.10
2018-01-10T19:51:46.695Z,9.60
2018-01-10T19:52:46.698Z,9.70
2018-01-10T19:53:46.642Z,11.50
2018-01-10T19:54:46.708Z,13.60
2018-01-10T19:55:46.591Z,11.10
2018-01-10T19:56:46.620Z,11.60
2018-01-10T19:57:46.542Z,11.30
2018-01-10T19:58:46.529Z,9.90
2018-01-10T19:59:46.494Z,12.00
2018-01-10T20:00:46.537Z,11.70
2018-01-10T20:01:46.439Z,11.00
2018-01-10T20:02:46.450Z,10.90
2018-01-10T20:03:46.388Z,10.90
2018-01-10T20:04:46.465Z,14.20
2018-01-10T20:05:46.337Z,12.10
2018-01-10T20:06:46.377Z,13.20
2018-01-10T20:07:46.286Z,12.30
2018-01-10T20:08:46.284Z,11.50
2018-01-10T20:09:46.236Z,14.00
2018-01-10T20:10:46.298Z,15.00
2018-01-10T20:11:46.184Z,10.00
2018-01-10T20:12:46.214Z,11.80
2018-01-10T20:13:46.134Z,10.30
2018-01-10T20:14:46.220Z,11.80
2018-01-10T20:15:46.121Z,11.00
2018-01-10T20:16:46.130Z,10.90
2018-01-10T20:17:46.033Z,12.60
2018-01-10T20:18:46.039Z,14.20
2018-01-10T20:19:45.982Z,13.30
2018-01-10T20:20:46.049Z,13.90
2018-01-10T20:21:45.935Z,11.00
2018-01-10T20:22:45.961Z,11.80
2018-01-10T20:23:45.882Z,11.30
2018-01-10T20:24:45.871Z,11.70
2018-01-10T20:25:45.830Z,12.70
2018-01-10T20:26:45.888Z,12.80
2018-01-10T20:27:45.777Z,13.80
2018-01-10T20:28:45.803Z,11.80
2018-01-10T20:29:45.729Z,12.60
2018-01-10T20:30:45.808Z,12.10
2018-01-10T20:31:45.675Z,14.30
2018-01-10T20:32:45.719Z,13.10
2018-01-10T20:33:45.627Z,12.50
2018-01-10T20:34:45.629Z,12.60
2018-01-10T20:35:45.578Z,12.20
2018-01-10T20:36:45.642Z,11.40
2018-01-10T20:37:45.523Z,11.00
2018-01-10T20:38:45.549Z,12.20
2018-01-10T20:39:45.475Z,10.60
2018-01-10T20:40:45.562Z,10.20
2018-01-10T20:41:45.428Z,9.50
2018-01-10T20:42:45.472Z,9.50
2018-01-10T20:43:45.372Z,10.50
2018-01-10T20:44:45.391Z,10.80
2018-01-10T20:45:45.324Z,9.20
2018-01-10T20:46:45.397Z,8.90
2018-01-10T20:47:45.272Z,11.40
2018-01-10T20:48:45.305Z,10.30
2018-01-10T20:49:45.220Z,12.00
2018-01-10T20:50:45.229Z,9.20
2018-01-10T20:51:45.171Z,9.80
2018-01-10T20:52:45.226Z,11.90
2018-01-10T20:53:45.124Z,10.50
2018-01-10T20:54:45.136Z,11.70
2018-01-10T20:55:45.068Z,9.70
2018-01-10T20:56:45.151Z,10.30
2018-01-10T20:57:45.018Z,11.30
2018-01-10T20:58:45.061Z,10.60
2018-01-10T20:59:44.968Z,10.60
2018-01-10T21:00:44.972Z,10.60
2018-01-10T21:01:44.915Z,11.20
2018-01-10T21:02:44.982Z,10.70
2018-01-10T21:03:44.862Z,12.00
2018-01-10T21:04:44.900Z,10.80
2018-01-10T21:05:44.818Z,13.60
2018-01-10T21:06:44.806Z,10.50
2018-01-10T21:07:44.786Z,13.10
2018-01-10T21:08:44.814Z,11.20
2018-01-10T21:09:44.712Z,11.50
2018-01-10T21:10:44.725Z,10.90
2018-01-10T21:11:44.665Z,12.70
2018-01-10T21:12:44.737Z,13.90
2018-01-10T21:13:44.609Z,12.80
2018-01-10T21:14:44.648Z,12.60
2018-01-10T21:15:44.558Z,12.70
2018-01-10T21:16:44.557Z,11.90
2018-01-10T21:17:44.506Z,13.60
2018-01-10T21:18:44.601Z,14.90
2018-01-10T21:19:44.454Z,14.40
2018-01-10T21:20:44.479Z,13.40
2018-01-10T21:21:44.404Z,13.40
2018-01-10T21:22:44.492Z,14.00
2018-01-10T21:23:44.354Z,12.70
2018-01-10T21:24:44.403Z,12.00
2018-01-10T21:25:44.305Z,11.90
2018-01-10T21:26:44.313Z,13.70
2018-01-10T21:27:44.250Z,13.70
2018-01-10T21:28:44.347Z,12.50
2018-01-10T21:29:44.201Z,11.70
2018-01-10T21:30:44.236Z,12.40
2018-01-10T21:31:44.152Z,12.40
2018-01-10T21:32:44.248Z,12.80
2018-01-10T21:33:44.100Z,14.80
2018-01-10T21:34:44.156Z,12.10
2018-01-10T21:35:44.051Z,11.20
2018-01-10T21:36:44.066Z,13.10
2018-01-10T21:37:43.996Z,13.40
2018-01-10T21:38:44.081Z,13.20
2018-01-10T21:39:43.946Z,13.80
2018-01-10T21:40:43.989Z,13.50
2018-01-10T21:41:43.895Z,13.20
2018-01-10T21:42:43.900Z,14.10
2018-01-10T21:43:43.845Z,14.70
2018-01-10T21:44:43.916Z,14.10
2018-01-10T21:45:43.791Z,16.10
2018-01-10T21:46:43.822Z,16.00
2018-01-10T21:47:43.747Z,16.80
2018-01-10T21:48:43.732Z,15.90
2018-01-10T21:49:43.687Z,16.00
2018-01-10T21:50:43.748Z,15.50
2018-01-10T21:51:43.642Z,14.70
2018-01-10T21:52:43.656Z,15.50
2018-01-10T21:53:43.587Z,16.10
2018-01-10T21:54:43.669Z,15.00
2018-01-10T21:55:43.534Z,14.60
2018-01-10T21:56:43.602Z,15.10
2018-01-10T21:57:43.483Z,15.10
2018-01-10T21:58:43.490Z,15.00
2018-01-10T21:59:43.433Z,16.70
2018-01-10T22:00:43.501Z,17.40
2018-01-10T22:01:43.384Z,15.90
2018-01-10T22:02:43.412Z,16.40
2018-01-10T22:03:43.334Z,15.90
2018-01-10T22:04:43.320Z,15.20
2018-01-10T22:05:43.279Z,14.40
2018-01-10T22:06:43.333Z,15.70
2018-01-10T22:07:43.229Z,15.70
2018-01-10T22:08:43.299Z,15.00
2018-01-10T22:09:43.177Z,15.00
2018-01-10T22:10:43.256Z,16.50
2018-01-10T22:11:43.144Z,15.70
2018-01-10T22:12:43.167Z,16.40
2018-01-10T22:13:43.074Z,14.90
2018-01-10T22:14:43.077Z,14.90
2018-01-10T22:15:43.023Z,15.50
2018-01-10T22:16:43.089Z,13.50
2018-01-10T22:17:42.969Z,14.30
2018-01-10T22:18:42.998Z,12.90
2018-01-10T22:19:42.919Z,15.20
2018-01-10T22:20:42.908Z,14.60
2018-01-10T22:21:42.866Z,13.10
2018-01-10T22:22:42.921Z,14.80
2018-01-10T22:23:42.817Z,13.70
2018-01-10T22:24:42.830Z,13.50
2018-01-10T22:25:42.764Z,13.40
2018-01-10T22:26:42.843Z,14.50
2018-01-10T22:27:42.716Z,15.80
2018-01-10T22:28:42.754Z,13.90
2018-01-10T22:29:42.662Z,13.70
2018-01-10T22:30:42.663Z,14.30
2018-01-10T22:31:42.608Z,14.40
2018-01-10T22:32:42.678Z,15.40
2018-01-10T22:33:42.555Z,15.90
2018-01-10T22:34:42.586Z,14.60
2018-01-10T22:35:42.504Z,14.90
2018-01-10T22:36:42.494Z,14.60
2018-01-10T22:37:42.452Z,16.30
2018-01-10T22:38:42.509Z,15.10
2018-01-10T22:39:42.402Z,15.10
2018-01-10T22:40:42.418Z,14.50
2018-01-10T22:41:42.354Z,15.30
2018-01-10T22:42:42.430Z,16.60
2018-01-10T22:43:42.298Z,14.60
2018-01-10T22:44:42.341Z,14.90
2018-01-10T22:45:42.244Z,15.20
2018-01-10T22:46:42.252Z,15.50
2018-01-10T22:47:42.196Z,14.60
2018-01-10T22:48:42.262Z,15.30
2018-01-10T22:49:42.140Z,14.90
2018-01-10T22:50:42.173Z,16.80
2018-01-10T22:51:42.089Z,14.60
2018-01-10T22:52:42.084Z,15.80
2018-01-10T22:53:42.037Z,14.60
2018-01-10T22:54:42.095Z,14.90
2018-01-10T22:55:41.984Z,14.60
2018-01-10T22:56:42.005Z,15.00
2018-01-10T22:57:41.933Z,15.10
2018-01-10T22:58:42.020Z,15.70
2018-01-10T22:59:41.882Z,16.70
2018-01-10T23:00:41.930Z,17.10
2018-01-10T23:01:41.828Z,18.90
2018-01-10T23:02:41.838Z,17.20
2018-01-10T23:03:41.777Z,16.60
2018-01-10T23:04:41.854Z,19.70
2018-01-10T23:05:41.722Z,17.30
2018-01-10T23:06:41.762Z,17.80
2018-01-10T23:07:41.672Z,16.50
2018-01-10T23:08:41.671Z,16.00
2018-01-10T23:09:41.621Z,16.00
2018-01-10T23:10:41.686Z,17.80
2018-01-10T23:11:41.566Z,16.20
2018-01-10T23:12:41.595Z,16.40
2018-01-10T23:13:41.514Z,15.40
2018-01-10T23:14:41.505Z,15.00
2018-01-10T23:15:41.466Z,13.90
2018-01-10T23:16:41.518Z,14.70
2018-01-10T23:17:41.414Z,16.50
2018-01-10T23:18:41.427Z,14.50
2018-01-10T23:19:41.359Z,15.90
2018-01-10T23:20:41.437Z,14.50
2018-01-10T23:21:41.308Z,15.90
2018-01-10T23:22:41.349Z,13.70
2018-01-10T23:23:41.260Z,15.10
2018-01-10T23:24:41.259Z,14.40
2018-01-10T23:25:41.204Z,14.30
2018-01-10T23:26:41.274Z,13.80
2018-01-10T23:27:41.151Z,14.00
2018-01-10T23:28:41.183Z,14.20
2018-01-10T23:29:41.100Z,14.30
2018-01-10T23:30:41.091Z,13.50
2018-01-10T23:31:41.047Z,14.20
2018-01-10T23:32:41.104Z,14.60
2018-01-10T23:33:40.999Z,13.90
2018-01-10T23:34:41.017Z,14.90
2018-01-10T23:35:40.944Z,14.20
2018-01-10T23:36:41.025Z,13.90
2018-01-10T23:37:40.892Z,14.60
2018-01-10T23:38:40.939Z,13.90
2018-01-10T23:39:40.841Z,15.40
2018-01-10T23:40:40.846Z,15.30
2018-01-10T23:41:40.780Z,14.50
2018-01-10T23:42:40.862Z,15.50
2018-01-10T23:43:40.738Z,15.00
2018-01-10T23:44:40.769Z,17.00
2018-01-10T23:45:40.685Z,18.50
2018-01-10T23:46:40.678Z,16.00
2018-01-10T23:47:40.633Z,16.30
2018-01-10T23:48:40.693Z,17.10
2018-01-10T23:49:40.580Z,16.50
2018-01-10T23:50:40.602Z,15.50
2018-01-10T23:51:40.530Z,15.60
2018-01-10T23:52:40.617Z,15.80
2018-01-10T23:53:40.483Z,15.30
2018-01-10T23:54:40.525Z,15.70
2018-01-10T23:55:40.422Z,15.30
2018-01-10T23:56:40.434Z,15.30
2018-01-10T23:57:40.373Z,15.00
2018-01-10T23:58:40.447Z,15.00
2018-01-10T23:59:40.324Z,15.10
